Time;durP1;ratioP1;P1;durP2;ratioP2;P2;SDS_P1;SDS_P2;PMS_P1;PMS_P2;Temp;Humidity;BMP_temperature;BMP_pressure;BME280_temperature;BME280_humidity;BME280_pressure;Samples;Min_cycle;Max_cycle;Signal;HPM_P1;HPM_P2
2020/12/13 00:00:52;;;;;;;1999.90;999.90;;;8.10;99.90;;;;;;4984476;28;20199;-82
2020/12/13 00:03:21;;;;;;;1999.90;999.90;;;8.10;99.90;;;;;;4984351;28;20163;-82
2020/12/13 00:05:46;;;;;;;1999.90;999.90;;;8.10;99.90;;;;;;4984058;28;20250;-82
2020/12/13 00:08:15;;;;;;;1999.90;999.90;;;8.10;99.90;;;;;;4982367;28;20203;-82
2020/12/13 00:10:44;;;;;;;1999.90;999.90;;;8.10;99.90;;;;;;4983440;28;20178;-82
2020/12/13 00:13:11;;;;;;;1999.90;999.90;;;8.10;99.90;;;;;;4984510;28;20186;-82
2020/12/13 00:15:37;;;;;;;1999.90;999.90;;;8.10;99.90;;;;;;4983622;28;20225;-82
2020/12/13 00:18:03;;;;;;;1999.90;999.90;;;8.20;99.90;;;;;;4983447;28;20178;-82
2020/12/13 00:20:29;;;;;;;1999.90;999.90;;;8.10;99.90;;;;;;4983502;28;20183;-82
2020/12/13 00:23:00;;;;;;;1999.90;999.90;;;8.20;99.90;;;;;;4983980;28;20231;-82
2020/12/13 00:25:26;;;;;;;1999.90;999.90;;;8.20;99.90;;;;;;4983828;28;20512;-82
2020/12/13 00:27:51;;;;;;;1999.90;999.90;;;8.20;99.90;;;;;;4982401;28;20262;-82
2020/12/13 00:30:17;;;;;;;1999.90;999.90;;;8.20;99.90;;;;;;4983659;28;20167;-82
2020/12/13 00:32:43;;;;;;;1999.90;999.90;;;8.30;99.90;;;;;;4983486;28;20214;-82
2020/12/13 00:35:14;;;;;;;1999.90;999.90;;;8.30;99.90;;;;;;4981951;28;20163;-82
2020/12/13 00:37:41;;;;;;;1999.90;999.90;;;8.30;99.90;;;;;;4981009;28;20160;-82
2020/12/13 00:40:07;;;;;;;1999.90;999.90;;;8.30;99.90;;;;;;4979961;28;20197;-82
2020/12/13 00:42:47;;;;;;;1999.90;999.90;;;8.30;99.90;;;;;;4980334;28;20205;-82
2020/12/13 00:45:13;;;;;;;1999.90;999.90;;;8.30;99.90;;;;;;4980765;28;20147;-82
2020/12/13 00:47:39;;;;;;;1999.90;999.90;;;8.30;99.90;;;;;;4981022;28;20171;-82
2020/12/13 00:50:04;;;;;;;1999.90;999.90;;;8.30;99.90;;;;;;4981134;28;20151;-82
2020/12/13 00:52:30;;;;;;;1999.90;999.90;;;8.30;99.90;;;;;;4980980;28;20167;-82
2020/12/13 00:54:56;;;;;;;1999.90;999.90;;;8.40;99.90;;;;;;4980399;28;20175;-82
2020/12/13 00:57:21;;;;;;;1999.90;999.90;;;8.40;99.90;;;;;;4979778;28;20529;-82
2020/12/13 00:59:47;;;;;;;1999.90;999.90;;;8.40;99.90;;;;;;4980656;28;20188;-82
2020/12/13 01:02:12;;;;;;;1999.90;999.90;;;8.50;99.90;;;;;;4980425;28;20643;-82
2020/12/13 01:04:38;;;;;;;1999.90;999.90;;;8.40;99.90;;;;;;4981195;28;20615;-82
2020/12/13 01:07:04;;;;;;;1999.90;999.90;;;8.40;99.90;;;;;;4980895;28;20166;-82
2020/12/13 01:09:30;;;;;;;1999.90;999.90;;;8.40;99.90;;;;;;4979899;28;20198;-82
2020/12/13 01:11:56;;;;;;;1999.90;999.90;;;8.40;99.90;;;;;;4979962;28;20179;-82
2020/12/13 01:14:24;;;;;;;1999.90;999.90;;;8.40;99.90;;;;;;4979710;28;20195;-82
2020/12/13 01:16:51;;;;;;;1999.90;999.90;;;8.40;99.90;;;;;;4979706;28;20411;-82
2020/12/13 01:19:16;;;;;;;1999.90;999.90;;;8.40;99.90;;;;;;4980214;28;20187;-82
2020/12/13 01:21:42;;;;;;;1999.90;999.90;;;8.40;99.90;;;;;;4979508;28;20167;-82
2020/12/13 01:24:07;;;;;;;1999.90;999.90;;;8.40;99.90;;;;;;4979693;28;20167;-82
2020/12/13 01:26:33;;;;;;;1999.90;999.90;;;8.50;99.90;;;;;;4979276;28;20178;-82
2020/12/13 01:28:59;;;;;;;1999.90;999.90;;;8.50;99.90;;;;;;4979487;28;20167;-82
2020/12/13 01:31:24;;;;;;;1999.90;999.90;;;8.50;99.90;;;;;;4979551;28;20527;-82
2020/12/13 01:33:53;;;;;;;1999.90;999.90;;;8.50;99.90;;;;;;4979901;28;20214;-82
2020/12/13 01:36:21;;;;;;;1999.90;999.90;;;8.50;99.90;;;;;;4979873;28;20194;-82
2020/12/13 01:38:48;;;;;;;1999.90;999.90;;;8.50;99.90;;;;;;4979324;28;20163;-82
2020/12/13 01:41:15;;;;;;;1999.90;999.90;;;8.50;99.90;;;;;;4979661;28;20194;-82
2020/12/13 01:44:01;;;;;;;1999.90;999.90;;;8.50;99.90;;;;;;4962935;28;20171;-82
2020/12/13 01:46:28;;;;;;;1999.90;999.90;;;8.50;99.90;;;;;;4962107;28;20199;-82
2020/12/13 01:49:05;;;;;;;1999.90;999.90;;;8.60;99.90;;;;;;4979230;28;20187;-82
2020/12/13 01:54:15;;;;;;;1999.90;999.90;;;8.50;99.90;;;;;;4979246;28;20563;-82
2020/12/13 01:56:51;;;;;;;1999.90;999.90;;;8.50;99.90;;;;;;4979848;28;20143;-82
2020/12/13 01:59:18;;;;;;;1999.90;999.90;;;8.60;99.90;;;;;;4978860;28;20203;-82
2020/12/13 02:01:48;;;;;;;1999.90;999.90;;;8.60;99.90;;;;;;4979463;28;20159;-82
2020/12/13 02:04:20;;;;;;;1999.90;999.90;;;8.60;99.90;;;;;;4978863;28;20269;-82
2020/12/13 02:06:51;;;;;;;1999.90;999.90;;;8.70;99.90;;;;;;4979363;28;20166;-82
2020/12/13 02:09:37;;;;;;;1999.90;999.90;;;8.70;99.90;;;;;;4979347;28;20159;-82
2020/12/13 02:12:02;;;;;;;1999.90;999.90;;;8.60;99.90;;;;;;4978912;28;20492;-82
2020/12/13 02:14:28;;;;;;;1999.90;999.90;;;8.60;99.90;;;;;;4978552;28;20222;-82
2020/12/13 02:16:54;;;;;;;1999.90;999.90;;;8.60;99.90;;;;;;4961357;28;20542;-82
2020/12/13 02:19:20;;;;;;;1999.90;999.90;;;8.60;99.90;;;;;;4977537;28;20694;-82
2020/12/13 02:21:51;;;;;;;1999.90;999.90;;;8.60;99.90;;;;;;4977130;28;20207;-82
2020/12/13 02:24:17;;;;;;;1999.90;999.90;;;8.60;99.90;;;;;;4978435;28;20747;-82
2020/12/13 02:26:44;;;;;;;1999.90;999.90;;;8.60;99.90;;;;;;4978469;28;20242;-82
2020/12/13 02:29:10;;;;;;;1999.90;999.90;;;8.60;99.90;;;;;;4978246;28;20523;-82
2020/12/13 02:31:36;;;;;;;1999.90;999.90;;;8.70;99.90;;;;;;4978264;28;20169;-82
2020/12/13 02:34:02;;;;;;;1999.90;999.90;;;8.70;99.90;;;;;;4978656;28;20409;-82
2020/12/13 02:36:29;;;;;;;1999.90;999.90;;;8.60;99.90;;;;;;4978249;28;20159;-82
2020/12/13 02:38:55;;;;;;;1999.90;999.90;;;8.70;99.90;;;;;;4979067;28;20178;-82
2020/12/13 02:41:20;;;;;;;1999.90;999.90;;;8.70;99.90;;;;;;4978356;28;20199;-82
2020/12/13 02:43:46;;;;;;;1999.90;999.90;;;8.60;99.90;;;;;;4978100;28;20531;-82
2020/12/13 02:46:12;;;;;;;1999.90;999.90;;;8.70;99.90;;;;;;4978053;28;20695;-82
2020/12/13 02:48:38;;;;;;;1999.90;999.90;;;8.70;99.90;;;;;;5048431;23;20247;-80
2020/12/13 02:51:03;;;;;;;1999.90;999.90;;;8.70;99.90;;;;;;4959121;29;20171;-80
2020/12/13 02:53:31;;;;;;;1999.90;999.90;;;8.70;99.90;;;;;;4961267;28;20202;-80
2020/12/13 02:55:57;;;;;;;1999.90;999.90;;;8.70;99.90;;;;;;4976802;28;20186;-80
2020/12/13 02:58:26;;;;;;;1999.90;999.90;;;8.70;99.90;;;;;;4976440;28;20179;-80
2020/12/13 03:00:51;;;;;;;1999.90;999.90;;;8.70;99.90;;;;;;4977911;28;20990;-80
2020/12/13 03:03:17;;;;;;;1999.90;999.90;;;8.70;99.90;;;;;;4977840;28;20218;-80
2020/12/13 03:05:48;;;;;;;1999.90;999.90;;;8.70;99.90;;;;;;4960844;28;20222;-80
2020/12/13 03:08:16;;;;;;;1999.90;999.90;;;8.70;99.90;;;;;;4978298;28;20156;-80
2020/12/13 03:10:51;;;;;;;1999.90;999.90;;;8.70;99.90;;;;;;4960439;28;20171;-80
2020/12/13 03:13:25;;;;;;;1999.90;999.90;;;8.70;99.90;;;;;;4977896;28;20241;-80
2020/12/13 03:15:53;;;;;;;1999.90;999.90;;;8.70;99.90;;;;;;4977598;28;20190;-80
2020/12/13 03:18:19;;;;;;;1999.90;999.90;;;8.60;99.90;;;;;;4977333;28;20167;-80
2020/12/13 03:20:48;;;;;;;1999.90;999.90;;;8.70;99.90;;;;;;4977354;28;20208;-80
2020/12/13 03:23:16;;;;;;;1999.90;999.90;;;8.60;99.90;;;;;;4976234;28;20167;-80
2020/12/13 03:25:43;;;;;;;1999.90;999.90;;;8.70;99.90;;;;;;4960462;28;20277;-80
2020/12/13 03:28:17;;;;;;;1999.90;999.90;;;8.60;99.90;;;;;;4960080;28;20177;-80
2020/12/13 03:30:45;;;;;;;1999.90;999.90;;;8.60;99.90;;;;;;4960274;28;20158;-80
2020/12/13 03:33:11;;;;;;;1999.90;999.90;;;8.70;99.90;;;;;;4960617;28;20266;-80
2020/12/13 03:35:37;;;;;;;1999.90;999.90;;;8.70;99.90;;;;;;4960624;28;20650;-80
2020/12/13 03:38:06;;;;;;;1999.90;999.90;;;8.60;99.90;;;;;;4977524;28;20635;-80
2020/12/13 03:40:31;;;;;;;1999.90;999.90;;;8.60;99.90;;;;;;4960060;28;20484;-80
2020/12/13 03:42:57;;;;;;;1999.90;999.90;;;8.60;99.90;;;;;;4959918;28;20623;-80
2020/12/13 03:45:25;;;;;;;1999.90;999.90;;;8.50;99.90;;;;;;4977564;28;20163;-80
2020/12/13 03:47:54;;;;;;;1999.90;999.90;;;8.50;99.90;;;;;;4977406;28;20186;-80
2020/12/13 03:50:19;;;;;;;1999.90;999.90;;;8.60;99.90;;;;;;4977494;28;20538;-80
2020/12/13 03:52:50;;;;;;;1999.90;999.90;;;8.60;99.90;;;;;;4977309;28;20203;-80
2020/12/13 03:55:18;;;;;;;1999.90;999.90;;;8.60;99.90;;;;;;4977734;28;20417;-80
2020/12/13 03:57:44;;;;;;;1999.90;999.90;;;8.60;99.90;;;;;;4978375;28;20203;-80
2020/12/13 04:00:13;;;;;;;1999.90;999.90;;;8.70;99.90;;;;;;4960793;28;20246;-80
2020/12/13 04:02:41;;;;;;;1999.90;999.90;;;8.60;99.90;;;;;;4960618;28;20520;-80
2020/12/13 04:05:12;;;;;;;1999.90;999.90;;;8.50;99.90;;;;;;4961059;28;20206;-80
2020/12/13 04:07:38;;;;;;;1999.90;999.90;;;8.50;99.90;;;;;;4960931;28;20162;-80
2020/12/13 04:10:06;;;;;;;1999.90;999.90;;;8.50;99.90;;;;;;4979764;28;20635;-80
2020/12/13 04:12:34;;;;;;;1999.90;999.90;;;8.50;99.90;;;;;;4981765;28;20968;-80
2020/12/13 04:15:03;;;;;;;1999.90;999.90;;;8.50;99.90;;;;;;4980636;28;20171;-80
2020/12/13 04:17:29;;;;;;;1999.90;999.90;;;8.40;99.90;;;;;;4963455;28;20171;-80
2020/12/13 04:19:55;;;;;;;1999.90;999.90;;;8.50;99.90;;;;;;4963380;28;20736;-80
2020/12/13 04:22:20;;;;;;;1999.90;999.90;;;8.50;99.90;;;;;;4980786;28;20163;-80
2020/12/13 04:24:48;;;;;;;1999.90;999.90;;;8.50;99.90;;;;;;4980920;28;20531;-80
2020/12/13 04:27:15;;;;;;;1999.90;999.90;;;8.50;99.90;;;;;;4980649;28;20166;-80
2020/12/13 04:29:54;;;;;;;1999.90;999.90;;;8.50;99.90;;;;;;4963313;28;20171;-80
2020/12/13 04:32:21;;;;;;;1999.90;999.90;;;8.50;99.90;;;;;;4963648;28;20167;-80
2020/12/13 04:34:59;;;;;;;1999.90;999.90;;;8.50;99.90;;;;;;4963185;28;20178;-80
2020/12/13 04:37:25;;;;;;;1999.90;999.90;;;8.50;99.90;;;;;;4962971;28;20183;-80
2020/12/13 04:39:52;;;;;;;1999.90;999.90;;;8.50;99.90;;;;;;4963087;28;20195;-80
2020/12/13 04:42:18;;;;;;;1999.90;999.90;;;8.60;99.90;;;;;;4962937;28;20707;-80
2020/12/13 04:44:46;;;;;;;1999.90;999.90;;;8.70;99.90;;;;;;4962914;28;20199;-80
2020/12/13 04:47:19;;;;;;;1999.90;999.90;;;8.60;99.90;;;;;;4963103;28;20422;-80
2020/12/13 04:49:53;;;;;;;1999.90;999.90;;;8.70;99.90;;;;;;4980438;28;20167;-80
2020/12/13 04:52:20;;;;;;;1999.90;999.90;;;8.70;99.90;;;;;;4980118;28;20190;-80
2020/12/13 04:54:50;;;;;;;1999.90;999.90;;;8.60;99.90;;;;;;4979841;28;20167;-80
2020/12/13 04:57:23;;;;;;;1999.90;999.90;;;8.70;99.90;;;;;;4980055;28;20163;-80
2020/12/13 04:59:52;;;;;;;1999.90;999.90;;;8.60;99.90;;;;;;4980033;28;20659;-80
2020/12/13 05:02:27;;;;;;;1999.90;999.90;;;8.60;99.90;;;;;;4980429;28;20636;-80
2020/12/13 05:04:53;;;;;;;1999.90;999.90;;;8.60;99.90;;;;;;4980325;28;20152;-80
2020/12/13 05:07:22;;;;;;;1999.90;999.90;;;8.70;99.90;;;;;;4980037;28;20159;-80
2020/12/13 05:09:52;;;;;;;1999.90;999.90;;;8.70;99.90;;;;;;4979808;28;20501;-80
2020/12/13 05:12:25;;;;;;;1999.90;999.90;;;8.60;99.90;;;;;;4979488;28;20527;-80
2020/12/13 05:14:51;;;;;;;1999.90;999.90;;;8.60;99.90;;;;;;4962701;28;20164;-81
2020/12/13 05:17:17;;;;;;;1999.90;999.90;;;8.60;99.90;;;;;;4962250;28;20190;-80
2020/12/13 05:19:57;;;;;;;1999.90;999.90;;;8.70;99.90;;;;;;4962525;28;20241;-80
2020/12/13 05:22:22;;;;;;;1999.90;999.90;;;8.60;99.90;;;;;;4978382;28;20171;-80
2020/12/13 05:25:14;;;;;;;1999.90;999.90;;;8.60;99.90;;;;;;4961850;28;20194;-80
2020/12/13 05:27:49;;;;;;;1999.90;999.90;;;8.60;99.90;;;;;;4979883;28;20482;-80
2020/12/13 05:30:24;;;;;;;1999.90;999.90;;;8.60;99.90;;;;;;4977640;28;20195;-80
2020/12/13 05:32:50;;;;;;;1999.90;999.90;;;8.60;99.90;;;;;;4962199;28;20174;-80
2020/12/13 05:35:23;;;;;;;1999.90;999.90;;;8.50;99.90;;;;;;4979432;28;20164;-80
2020/12/13 05:37:51;;;;;;;1999.90;999.90;;;8.50;99.90;;;;;;4979377;28;20391;-80
2020/12/13 05:40:25;;;;;;;1999.90;999.90;;;8.60;99.90;;;;;;4961475;28;20544;-80
2020/12/13 05:43:01;;;;;;;1999.90;999.90;;;8.60;99.90;;;;;;4979150;28;20158;-80
2020/12/13 05:48:26;;;;;;;1999.90;999.90;;;8.50;99.90;;;;;;4978953;28;20197;-80
2020/12/13 05:53:35;;;;;;;1999.90;999.90;;;8.50;99.90;;;;;;4978914;28;20168;-80
2020/12/13 05:56:04;;;;;;;1999.90;999.90;;;8.50;99.90;;;;;;4978373;28;20214;-80
2020/12/13 05:58:36;;;;;;;1999.90;999.90;;;8.50;99.90;;;;;;4978326;28;20192;-80
2020/12/13 06:01:04;;;;;;;1999.90;999.90;;;8.50;99.90;;;;;;4978487;28;20187;-80
2020/12/13 06:03:38;;;;;;;1999.90;999.90;;;8.50;99.90;;;;;;4961357;28;20255;-81
2020/12/13 06:06:19;;;;;;;1999.90;999.90;;;8.50;99.90;;;;;;4960997;28;20582;-80
2020/12/13 06:09:17;;;;;;;1999.90;999.90;;;8.50;99.90;;;;;;4978494;28;20151;-80
2020/12/13 06:11:51;;;;;;;1999.90;999.90;;;8.50;99.90;;;;;;4978620;28;20155;-80
2020/12/13 06:14:22;;;;;;;1999.90;999.90;;;8.50;99.90;;;;;;4962844;28;20634;-80
2020/12/13 06:16:49;;;;;;;1999.90;999.90;;;8.50;99.90;;;;;;4979228;28;20168;-80
2020/12/13 06:19:20;;;;;;;1999.90;999.90;;;8.40;99.90;;;;;;4979856;28;20173;-81
2020/12/13 06:21:47;;;;;;;1999.90;999.90;;;8.40;99.90;;;;;;4977802;28;20151;-80
2020/12/13 06:24:19;;;;;;;1999.90;999.90;;;8.40;99.90;;;;;;4978955;28;20167;-80
2020/12/13 06:26:45;;;;;;;1999.90;999.90;;;8.30;99.90;;;;;;4979403;28;20226;-80
2020/12/13 06:29:20;;;;;;;1999.90;999.90;;;8.30;99.90;;;;;;4978921;28;20243;-80
2020/12/13 06:31:50;;;;;;;1999.90;999.90;;;8.30;99.90;;;;;;4978589;28;20147;-80
2020/12/13 06:34:19;;;;;;;1999.90;999.90;;;8.30;99.90;;;;;;4978065;28;20171;-80
2020/12/13 06:36:48;;;;;;;1999.90;999.90;;;8.30;99.90;;;;;;4961055;28;20290;-80
2020/12/13 06:39:20;;;;;;;1999.90;999.90;;;8.30;99.90;;;;;;4960972;28;20167;-80
2020/12/13 06:41:50;;;;;;;1999.90;999.90;;;8.30;99.90;;;;;;4978346;28;20183;-80
2020/12/13 06:44:20;;;;;;;1999.90;999.90;;;8.20;99.90;;;;;;4978391;28;20181;-80
2020/12/13 06:46:56;;;;;;;1999.90;999.90;;;8.20;99.90;;;;;;4978812;28;20167;-80
2020/12/13 06:49:22;;;;;;;1999.90;999.90;;;8.20;99.90;;;;;;4978239;28;20553;-80
2020/12/13 06:51:48;;;;;;;1999.90;999.90;;;8.20;99.90;;;;;;4960950;28;20167;-80
2020/12/13 06:54:19;;;;;;;1999.90;999.90;;;8.20;99.90;;;;;;4961031;28;20171;-79
2020/12/13 06:56:53;;;;;;;1999.90;999.90;;;8.20;99.90;;;;;;4978026;28;20274;-77
2020/12/13 06:59:21;;;;;;;1999.90;999.90;;;8.10;99.90;;;;;;4977914;28;20189;-80
2020/12/13 07:01:50;;;;;;;1999.90;999.90;;;8.20;99.90;;;;;;4960076;28;20649;-80
2020/12/13 07:04:24;;;;;;;1999.90;999.90;;;8.20;99.90;;;;;;4977524;28;20187;-80
2020/12/13 07:07:03;;;;;;;1999.90;999.90;;;8.10;99.90;;;;;;4977883;28;20151;-79
2020/12/13 07:09:32;;;;;;;1999.90;999.90;;;8.10;99.90;;;;;;4960220;28;20539;-80
2020/12/13 07:12:00;;;;;;;1999.90;999.90;;;8.10;99.90;;;;;;4960592;28;20207;-79
2020/12/13 07:14:38;;;;;;;1999.90;999.90;;;8.10;99.90;;;;;;4977554;28;20163;-80
2020/12/13 07:17:17;;;;;;;1999.90;999.90;;;8.10;99.90;;;;;;4977826;28;20152;-80
2020/12/13 07:19:42;;;;;;;1999.90;999.90;;;8.10;99.90;;;;;;4977201;28;20189;-80
2020/12/13 07:22:11;;;;;;;1999.90;999.90;;;8.10;99.90;;;;;;4960037;28;20163;-80
2020/12/13 07:24:41;;;;;;;1999.90;999.90;;;8.10;99.90;;;;;;4976560;28;20167;-80
2020/12/13 07:27:07;;;;;;;1999.90;999.90;;;8.10;99.90;;;;;;4978227;28;20163;-80
2020/12/13 07:29:34;;;;;;;1999.90;999.90;;;8.00;99.90;;;;;;4977789;28;20167;-79
2020/12/13 07:32:01;;;;;;;1999.90;999.90;;;8.10;99.90;;;;;;4960270;28;20254;-80
2020/12/13 07:34:31;;;;;;;1999.90;999.90;;;8.00;99.90;;;;;;4960191;28;20225;-80
2020/12/13 07:37:01;;;;;;;1999.90;999.90;;;8.00;99.90;;;;;;4977209;28;20174;-80
2020/12/13 07:39:30;;;;;;;1999.90;999.90;;;8.00;99.90;;;;;;4959220;28;20210;-80
2020/12/13 07:41:58;;;;;;;1999.90;999.90;;;8.00;99.90;;;;;;4977374;28;20174;-80
2020/12/13 07:44:24;;;;;;;1999.90;999.90;;;8.00;99.90;;;;;;4961131;28;20167;-80
2020/12/13 07:46:50;;;;;;;1999.90;999.90;;;7.90;99.90;;;;;;4981653;28;20174;-80
2020/12/13 07:49:20;;;;;;;1999.90;999.90;;;7.90;99.90;;;;;;4964632;28;20193;-80
2020/12/13 07:51:51;;;;;;;1999.90;999.90;;;7.90;99.90;;;;;;4964366;28;20926;-80
2020/12/13 07:54:30;;;;;;;1999.90;999.90;;;7.90;99.90;;;;;;4964717;28;20253;-80
2020/12/13 07:56:59;;;;;;;1999.90;999.90;;;7.90;99.90;;;;;;4964012;28;20638;-80
2020/12/13 07:59:30;;;;;;;1999.90;999.90;;;8.00;99.90;;;;;;4963790;28;20186;-80
2020/12/13 08:02:22;;;;;;;1999.90;999.90;;;8.00;99.90;;;;;;4963000;28;20175;-80
2020/12/13 08:04:58;;;;;;;1999.90;999.90;;;8.00;99.90;;;;;;4981317;28;20152;-80
2020/12/13 08:07:32;;;;;;;1999.90;999.90;;;7.90;99.90;;;;;;4963259;28;20163;-80
2020/12/13 08:09:58;;;;;;;1999.90;999.90;;;8.00;99.90;;;;;;4980961;28;20156;-80
2020/12/13 08:12:43;;;;;;;1999.90;999.90;;;8.00;99.90;;;;;;4963318;28;20178;-80
2020/12/13 08:15:19;;;;;;;1999.90;999.90;;;8.00;99.90;;;;;;4964310;28;20453;-80
2020/12/13 08:18:10;;;;;;;1999.90;999.90;;;8.00;99.90;;;;;;4978654;28;20175;-80
2020/12/13 08:20:38;;;;;;;1999.90;999.90;;;7.90;99.90;;;;;;4963594;28;20202;-80
2020/12/13 08:23:09;;;;;;;1999.90;999.90;;;7.90;99.90;;;;;;4981193;28;20159;-80
2020/12/13 08:25:38;;;;;;;1999.90;999.90;;;7.90;99.90;;;;;;4963618;28;20167;-80
2020/12/13 08:28:07;;;;;;;1999.90;999.90;;;8.00;99.90;;;;;;4981288;28;20194;-79
2020/12/13 08:30:57;;;;;;;1999.90;999.90;;;8.00;99.90;;;;;;4964208;28;20187;-80
2020/12/13 08:33:50;;;;;;;1999.90;999.90;;;7.90;99.90;;;;;;4963217;28;20180;-80
2020/12/13 08:36:24;;;;;;;1999.90;999.90;;;8.00;99.90;;;;;;4928660;28;20187;-80
2020/12/13 08:39:12;;;;;;;1999.90;999.90;;;8.00;99.90;;;;;;4963716;28;20176;-80
2020/12/13 08:41:55;;;;;;;1999.90;999.90;;;8.00;99.90;;;;;;4963359;28;20182;-80
2020/12/13 08:45:03;;;;;;;1999.90;999.90;;;8.10;99.90;;;;;;4980697;28;20250;-80
